createdAt,value
2023-02-17T00:02:26.292Z,85.20
2023-02-17T00:05:28.874Z,79.65
2023-02-17T00:08:31.179Z,87.40
2023-02-17T00:11:34.316Z,84.32
2023-02-17T00:14:37.026Z,91.47
2023-02-17T00:17:39.715Z,90.97
2023-02-17T00:20:42.187Z,84.18
2023-02-17T00:23:45.757Z,89.47
2023-02-17T00:26:48.575Z,83.45
2023-02-17T00:29:51.216Z,91.68
2023-02-17T00:32:55.682Z,83.75
2023-02-17T00:36:00.139Z,85.78
2023-02-17T00:39:02.772Z,81.75
2023-02-17T00:42:05.072Z,90.13
2023-02-17T00:45:07.892Z,86.18
2023-02-17T00:48:11.009Z,81.47
2023-02-17T00:51:14.899Z,82.45
2023-02-17T00:54:18.044Z,86.53
2023-02-17T00:57:20.883Z,90.53
2023-02-17T01:00:24.469Z,89.43
2023-02-17T01:03:29.369Z,91.82
2023-02-17T01:06:34.580Z,97.15
2023-02-17T01:09:37.270Z,89.85
2023-02-17T01:12:40.062Z,92.78
2023-02-17T01:15:46.012Z,85.20
2023-02-17T01:18:49.496Z,87.50
2023-02-17T01:21:53.854Z,90.55
2023-02-17T01:24:56.358Z,89.50
2023-02-17T01:27:59.329Z,84.95
2023-02-17T01:31:07.814Z,86.50
2023-02-17T01:34:11.452Z,91.50
2023-02-17T01:37:13.852Z,64.75
2023-02-17T01:40:16.928Z,89.25
2023-02-17T01:43:19.325Z,91.43
2023-02-17T01:46:21.774Z,86.65
2023-02-17T01:49:34.467Z,86.82
2023-02-17T01:52:37.164Z,92.28
2023-02-17T01:55:40.458Z,91.93
2023-02-17T01:58:46.505Z,70.40
2023-02-17T02:01:52.522Z,83.43
2023-02-17T02:04:55.664Z,84.68
2023-02-17T02:07:58.183Z,84.03
2023-02-17T02:11:01.251Z,81.18
2023-02-17T02:14:06.978Z,85.70
2023-02-17T02:17:30.030Z,80.18
2023-02-17T02:20:58.097Z,78.03
2023-02-17T02:24:06.018Z,87.38
2023-02-17T02:27:25.525Z,81.75
2023-02-17T02:30:50.822Z,79.25
2023-02-17T02:33:58.024Z,89.68
2023-02-17T02:37:09.187Z,86.15
2023-02-17T02:40:12.107Z,77.88
2023-02-17T02:43:15.814Z,79.60
2023-02-17T02:46:18.196Z,69.85
2023-02-17T02:49:20.596Z,72.65
2023-02-17T02:52:28.300Z,75.70
2023-02-17T02:55:45.594Z,69.93
2023-02-17T02:58:59.642Z,73.97
2023-02-17T03:02:04.992Z,72.78
2023-02-17T03:05:25.890Z,69.18
2023-02-17T03:08:46.523Z,68.65
2023-02-17T03:11:49.671Z,76.03
2023-02-17T03:14:57.413Z,68.28
2023-02-17T03:18:01.267Z,71.68
2023-02-17T03:21:09.768Z,77.72
2023-02-17T03:24:12.228Z,67.53
2023-02-17T03:27:14.647Z,66.97
2023-02-17T03:30:17.310Z,65.82
2023-02-17T03:33:19.735Z,74.07
2023-02-17T03:36:22.096Z,67.68
2023-02-17T03:39:24.598Z,67.78
2023-02-17T03:42:27.766Z,69.07
2023-02-17T03:45:30.189Z,52.23
2023-02-17T03:48:32.683Z,66.90
2023-02-17T03:51:35.100Z,64.47
2023-02-17T03:54:38.512Z,72.97
2023-02-17T03:57:40.885Z,68.32
2023-02-17T04:00:43.442Z,67.72
2023-02-17T04:03:45.740Z,65.50
2023-02-17T04:06:48.209Z,64.95
2023-02-17T04:09:50.471Z,56.70
2023-02-17T04:12:52.774Z,55.42
2023-02-17T04:15:55.597Z,63.00
2023-02-17T04:18:58.010Z,59.35
2023-02-17T04:22:01.048Z,66.80
2023-02-17T04:25:03.678Z,59.63
2023-02-17T04:28:07.290Z,64.78
2023-02-17T04:31:10.106Z,57.92
2023-02-17T04:34:12.607Z,62.20
2023-02-17T04:37:15.066Z,67.35
2023-02-17T04:40:18.270Z,63.50
2023-02-17T04:43:20.846Z,66.88
2023-02-17T04:46:23.330Z,62.75
2023-02-17T04:49:25.874Z,59.80
2023-02-17T04:52:28.675Z,60.05
2023-02-17T04:55:31.770Z,49.95
2023-02-17T04:58:34.157Z,71.28
2023-02-17T05:01:36.490Z,69.15
2023-02-17T05:04:38.865Z,62.47
2023-02-17T05:07:43.983Z,66.70
2023-02-17T05:10:46.450Z,69.55
2023-02-17T05:13:49.065Z,73.00
2023-02-17T05:16:52.801Z,65.70
2023-02-17T05:22:57.705Z,66.38
2023-02-17T05:26:00.020Z,63.80
2023-02-17T05:29:02.548Z,60.60
2023-02-17T05:32:04.937Z,65.30
2023-02-17T05:35:07.840Z,64.45
2023-02-17T05:38:10.268Z,57.13
2023-02-17T05:41:12.620Z,62.30
2023-02-17T05:44:15.060Z,58.45
2023-02-17T05:47:17.868Z,68.55
2023-02-17T05:50:20.251Z,62.75
2023-02-17T05:53:24.684Z,65.95
2023-02-17T05:56:27.040Z,62.28
2023-02-17T05:59:29.597Z,62.08
2023-02-17T06:02:32.029Z,74.03
2023-02-17T06:05:34.631Z,59.65
2023-02-17T06:08:37.326Z,65.32
2023-02-17T06:11:40.013Z,71.78
2023-02-17T06:14:42.901Z,71.03
2023-02-17T06:17:45.707Z,61.20
2023-02-17T06:20:49.185Z,70.13
2023-02-17T06:23:51.977Z,71.43
2023-02-17T06:26:54.580Z,64.70
2023-02-17T06:29:57.247Z,60.63
2023-02-17T06:33:00.173Z,64.40
2023-02-17T06:36:03.024Z,64.15
2023-02-17T06:39:05.654Z,69.47
2023-02-17T06:42:08.266Z,63.33
2023-02-17T06:45:11.539Z,69.22
2023-02-17T06:48:14.040Z,63.73
2023-02-17T06:51:16.644Z,70.00
2023-02-17T06:54:18.960Z,64.93
2023-02-17T06:57:22.210Z,63.60
2023-02-17T07:00:25.255Z,71.90
2023-02-17T07:03:27.719Z,71.63
2023-02-17T07:06:30.475Z,64.28
2023-02-17T07:09:34.173Z,63.50
2023-02-17T07:12:36.991Z,71.13
2023-02-17T07:15:39.391Z,71.88
2023-02-17T07:18:43.582Z,64.50
2023-02-17T07:21:46.819Z,69.05
2023-02-17T07:24:49.212Z,60.63
2023-02-17T07:27:52.386Z,62.42
2023-02-17T07:30:55.340Z,68.57
2023-02-17T07:33:58.109Z,58.67
2023-02-17T07:37:00.456Z,61.67
2023-02-17T07:40:03.751Z,65.63
2023-02-17T07:43:06.223Z,57.43
2023-02-17T07:46:10.388Z,61.20
2023-02-17T07:49:15.046Z,63.83
2023-02-17T07:52:18.904Z,67.68
2023-02-17T07:55:22.272Z,56.38
2023-02-17T07:58:26.483Z,64.85
2023-02-17T08:01:28.947Z,46.70
2023-02-17T08:04:32.984Z,59.95
2023-02-17T08:07:35.399Z,68.43
2023-02-17T08:10:57.842Z,67.53
2023-02-17T08:14:00.962Z,65.75
2023-02-17T08:17:03.557Z,64.90
2023-02-17T08:20:09.252Z,67.72
2023-02-17T08:23:12.302Z,63.72
2023-02-17T08:26:15.575Z,54.92
2023-02-17T08:29:20.979Z,47.00
2023-02-17T08:32:23.616Z,58.60
2023-02-17T08:35:26.623Z,55.53
2023-02-17T08:38:30.046Z,55.28
2023-02-17T08:41:35.327Z,45.17
2023-02-17T08:44:38.106Z,57.65
2023-02-17T08:47:40.814Z,62.47
2023-02-17T08:50:43.990Z,62.83
2023-02-17T08:53:48.925Z,49.03
2023-02-17T08:56:51.389Z,61.35
2023-02-17T08:59:55.252Z,59.55
2023-02-17T09:02:58.138Z,55.65
2023-02-17T09:06:00.677Z,61.53
2023-02-17T09:09:05.184Z,80.60
2023-02-17T09:12:08.001Z,67.32
2023-02-17T09:15:10.583Z,92.00
2023-02-17T09:18:13.688Z,60.05
2023-02-17T09:21:17.141Z,66.43
2023-02-17T09:24:20.739Z,56.00
2023-02-17T09:27:23.281Z,58.63
2023-02-17T09:30:25.904Z,72.00
2023-02-17T09:33:28.384Z,60.10
2023-02-17T09:36:39.837Z,59.83
2023-02-17T09:39:42.178Z,57.63
2023-02-17T09:42:45.024Z,66.90
2023-02-17T09:46:22.536Z,63.25
2023-02-17T09:49:40.209Z,61.17
2023-02-17T09:53:04.181Z,70.85
2023-02-17T09:56:09.676Z,61.70
2023-02-17T09:59:17.325Z,59.35
2023-02-17T10:02:37.334Z,63.08
2023-02-17T10:05:52.144Z,61.35
2023-02-17T10:09:22.598Z,57.97
2023-02-17T10:12:28.688Z,52.70
2023-02-17T10:15:42.613Z,54.45
2023-02-17T10:22:18.447Z,60.22
2023-02-17T10:25:27.610Z,56.88
2023-02-17T10:28:49.296Z,67.13
2023-02-17T10:32:08.327Z,61.63
2023-02-17T10:35:23.344Z,62.38
2023-02-17T10:38:28.859Z,59.50
2023-02-17T10:41:35.920Z,65.57
2023-02-17T10:44:39.633Z,59.40
2023-02-17T10:47:42.418Z,66.90
2023-02-17T10:50:46.697Z,59.20
2023-02-17T10:56:55.238Z,64.90
2023-02-17T10:59:58.639Z,72.97
2023-02-17T11:03:01.422Z,59.23
2023-02-17T11:06:06.869Z,62.90
2023-02-17T11:09:34.797Z,65.38
2023-02-17T11:12:41.821Z,60.30
2023-02-17T11:15:46.017Z,63.47
2023-02-17T11:21:53.296Z,58.90
2023-02-17T11:25:01.718Z,64.32
2023-02-17T11:28:27.360Z,63.95
2023-02-17T11:31:32.264Z,60.65
2023-02-17T11:34:40.316Z,57.88
2023-02-17T11:37:43.476Z,65.90
2023-02-17T11:40:58.187Z,65.53
2023-02-17T11:44:00.824Z,63.13
2023-02-17T11:47:24.025Z,54.17
2023-02-17T11:50:41.308Z,54.25
2023-02-17T11:53:52.433Z,57.78
2023-02-17T11:57:08.074Z,63.00
2023-02-17T12:00:22.851Z,65.20
2023-02-17T12:03:57.621Z,56.58
2023-02-17T12:07:48.168Z,58.30
2023-02-17T12:11:00.083Z,61.10
2023-02-17T12:14:18.999Z,51.08
2023-02-17T12:17:27.384Z,57.13
2023-02-17T12:20:54.588Z,67.43
2023-02-17T12:24:06.639Z,56.78
2023-02-17T12:27:27.505Z,54.58
2023-02-17T12:30:48.864Z,58.85
2023-02-17T12:33:59.431Z,74.88
2023-02-17T12:37:02.270Z,60.53
2023-02-17T12:40:08.718Z,77.82
2023-02-17T12:43:32.208Z,67.05
2023-02-17T12:46:40.987Z,59.95
2023-02-17T12:50:06.619Z,50.47
2023-02-17T12:53:16.713Z,51.92
2023-02-17T12:56:34.675Z,53.80
2023-02-17T12:59:41.713Z,57.22
2023-02-17T13:02:44.208Z,43.20
2023-02-17T13:05:49.381Z,47.20
2023-02-17T13:09:01.206Z,47.03
2023-02-17T13:12:12.969Z,63.92
2023-02-17T13:15:58.885Z,53.08
2023-02-17T13:19:08.918Z,45.17
2023-02-17T13:22:24.040Z,38.92
2023-02-17T13:25:30.157Z,35.30
2023-02-17T13:28:38.471Z,38.13
2023-02-17T13:31:58.824Z,35.03
2023-02-17T13:35:24.620Z,36.70
2023-02-17T13:38:32.035Z,35.83
2023-02-17T13:41:48.184Z,40.92
2023-02-17T13:44:51.974Z,38.60
2023-02-17T13:47:57.872Z,38.95
2023-02-17T13:51:10.025Z,34.95
2023-02-17T13:54:13.116Z,32.90
2023-02-17T13:57:28.747Z,28.73
2023-02-17T14:00:32.308Z,29.55
2023-02-17T14:03:42.589Z,32.15
2023-02-17T14:06:45.105Z,27.65
2023-02-17T14:09:54.818Z,30.80
2023-02-17T14:12:57.682Z,32.45
2023-02-17T14:16:01.397Z,69.60
2023-02-17T14:19:11.186Z,31.77
2023-02-17T14:22:31.320Z,40.38
2023-02-17T14:25:37.033Z,26.05
2023-02-17T14:28:39.354Z,34.42
2023-02-17T14:31:50.532Z,48.45
2023-02-17T14:34:53.103Z,33.13
2023-02-17T14:37:56.234Z,53.47
2023-02-17T14:41:01.256Z,36.33
2023-02-17T14:44:03.839Z,38.08
2023-02-17T14:47:06.686Z,30.35
2023-02-17T14:50:09.760Z,30.05
2023-02-17T14:53:27.055Z,24.38
2023-02-17T14:56:42.510Z,28.95
2023-02-17T14:59:45.414Z,30.40
2023-02-17T15:02:48.283Z,29.88
2023-02-17T15:05:52.581Z,24.00
2023-02-17T15:08:55.416Z,25.73
2023-02-17T15:11:58.821Z,29.45
2023-02-17T15:15:01.407Z,28.65
2023-02-17T15:18:04.093Z,25.77
2023-02-17T15:21:18.301Z,29.85
2023-02-17T15:24:29.913Z,31.83
2023-02-17T15:27:33.532Z,32.03
2023-02-17T15:30:37.241Z,33.92
2023-02-17T15:33:39.978Z,28.48
2023-02-17T15:36:42.489Z,32.58
2023-02-17T15:39:44.830Z,28.17
2023-02-17T15:42:51.127Z,36.17
2023-02-17T15:45:53.635Z,37.67
2023-02-17T15:48:55.956Z,39.25
2023-02-17T15:51:58.410Z,28.83
2023-02-17T15:55:00.847Z,30.95
2023-02-17T15:58:05.401Z,36.05
2023-02-17T16:01:13.957Z,37.33
2023-02-17T16:04:16.412Z,27.38
2023-02-17T16:07:19.817Z,25.08
2023-02-17T16:10:27.341Z,26.98
2023-02-17T16:13:29.792Z,26.67
2023-02-17T16:16:33.809Z,27.13
2023-02-17T16:19:36.216Z,37.83
2023-02-17T16:22:38.916Z,30.80
2023-02-17T16:25:43.234Z,23.77
2023-02-17T16:28:45.804Z,19.73
2023-02-17T16:31:49.041Z,27.92
2023-02-17T16:34:52.043Z,26.33
2023-02-17T16:38:01.154Z,28.48
2023-02-17T16:41:03.636Z,18.85
2023-02-17T16:44:07.627Z,22.50
2023-02-17T16:47:19.953Z,31.27
2023-02-17T16:50:32.000Z,20.55
2023-02-17T16:53:34.504Z,24.85
2023-02-17T16:56:40.904Z,21.80
2023-02-17T16:59:43.393Z,22.52
2023-02-17T17:02:46.103Z,18.33
2023-02-17T17:05:49.038Z,22.08
2023-02-17T17:08:52.062Z,16.58
2023-02-17T17:11:58.749Z,16.70
2023-02-17T17:15:01.166Z,20.15
2023-02-17T17:18:06.531Z,29.27
2023-02-17T17:21:12.476Z,19.58
2023-02-17T17:24:15.032Z,16.88
2023-02-17T17:27:17.765Z,20.63
2023-02-17T17:30:22.865Z,18.15
2023-02-17T17:33:25.214Z,18.58
2023-02-17T17:36:41.869Z,17.10
2023-02-17T17:39:44.254Z,18.92
2023-02-17T17:42:46.869Z,19.38
2023-02-17T17:45:52.868Z,18.20
2023-02-17T17:48:56.211Z,20.58
2023-02-17T17:51:58.638Z,22.20
2023-02-17T17:55:01.191Z,20.63
2023-02-17T17:58:03.695Z,18.20
2023-02-17T18:01:06.749Z,20.25
2023-02-17T18:04:09.690Z,21.05
2023-02-17T18:07:12.328Z,19.35
2023-02-17T18:10:15.079Z,17.95
2023-02-17T18:13:17.593Z,16.23
2023-02-17T18:16:21.968Z,19.05
2023-02-17T18:19:24.435Z,17.83
2023-02-17T18:22:26.825Z,15.95
2023-02-17T18:25:29.238Z,16.00
2023-02-17T18:28:31.693Z,20.20
2023-02-17T18:31:34.214Z,20.80
2023-02-17T18:34:36.663Z,17.00
2023-02-17T18:37:41.182Z,21.80
2023-02-17T18:40:43.731Z,17.25
2023-02-17T18:43:46.222Z,17.73
2023-02-17T18:46:48.554Z,18.85
2023-02-17T18:49:52.406Z,23.85
2023-02-17T18:52:54.884Z,20.30
2023-02-17T18:55:57.190Z,18.77
2023-02-17T18:59:00.284Z,19.30
2023-02-17T19:02:10.439Z,16.27
2023-02-17T19:05:14.166Z,15.00
2023-02-17T19:08:16.608Z,17.55
2023-02-17T19:11:20.718Z,23.95
2023-02-17T19:14:23.134Z,26.38
2023-02-17T19:17:25.774Z,22.25
2023-02-17T19:20:29.386Z,7.10
2023-02-17T19:23:32.003Z,6.35
2023-02-17T19:26:34.570Z,7.68
2023-02-17T19:29:37.396Z,4.25
2023-02-17T19:32:40.243Z,6.50
2023-02-17T19:35:44.190Z,3.40
2023-02-17T19:38:47.729Z,8.10
2023-02-17T19:41:50.108Z,8.73
2023-02-17T19:44:52.442Z,8.48
2023-02-17T19:47:55.033Z,9.85
2023-02-17T19:51:02.830Z,12.70
2023-02-17T19:54:05.570Z,12.68
2023-02-17T19:57:08.105Z,8.82
2023-02-17T20:00:11.028Z,15.07
2023-02-17T20:03:13.283Z,9.85
2023-02-17T20:06:19.259Z,14.63
2023-02-17T20:09:23.040Z,13.73
2023-02-17T20:12:25.863Z,10.65
2023-02-17T20:15:28.323Z,9.45
2023-02-17T20:18:32.359Z,7.55
2023-02-17T20:21:38.573Z,11.20
2023-02-17T20:24:42.058Z,8.60
2023-02-17T20:27:44.702Z,9.27
2023-02-17T20:30:47.304Z,8.95
2023-02-17T20:33:49.879Z,10.77
2023-02-17T20:36:52.233Z,11.02
2023-02-17T20:39:54.710Z,9.82
2023-02-17T20:42:57.255Z,11.25
2023-02-17T20:46:00.447Z,13.10
2023-02-17T20:49:02.851Z,7.43
2023-02-17T20:52:05.872Z,12.45
2023-02-17T20:55:08.476Z,14.63
2023-02-17T20:58:12.144Z,12.30
2023-02-17T21:01:15.127Z,6.57
2023-02-17T21:04:17.533Z,11.23
2023-02-17T21:07:19.911Z,8.43
2023-02-17T21:10:25.602Z,10.80
2023-02-17T21:13:29.861Z,9.50
2023-02-17T21:16:35.875Z,12.23
2023-02-17T21:19:38.676Z,9.38
2023-02-17T21:22:41.701Z,9.73
2023-02-17T21:25:46.350Z,10.02
2023-02-17T21:28:49.003Z,12.63
2023-02-17T21:31:52.855Z,18.10
2023-02-17T21:34:56.018Z,9.80
2023-02-17T21:37:58.405Z,13.82
2023-02-17T21:41:12.022Z,16.95
2023-02-17T21:44:33.091Z,13.83
2023-02-17T21:47:35.588Z,17.20
2023-02-17T21:50:38.002Z,13.90
2023-02-17T21:53:40.708Z,9.55
2023-02-17T21:56:43.163Z,13.02
2023-02-17T21:59:45.607Z,20.40
2023-02-17T22:02:48.146Z,14.68
2023-02-17T22:05:50.938Z,11.15
2023-02-17T22:08:53.419Z,16.92
2023-02-17T22:11:55.788Z,19.60
2023-02-17T22:14:58.715Z,14.55
2023-02-17T22:18:01.463Z,16.95
2023-02-17T22:21:07.094Z,11.68
2023-02-17T22:24:09.801Z,12.15
2023-02-17T22:27:12.154Z,14.55
2023-02-17T22:30:14.654Z,17.33
2023-02-17T22:33:17.416Z,11.88
2023-02-17T22:36:22.916Z,12.63
2023-02-17T22:39:25.594Z,14.55
2023-02-17T22:42:28.946Z,10.38
2023-02-17T22:45:32.026Z,9.13
2023-02-17T22:48:36.544Z,10.83
2023-02-17T22:51:40.593Z,13.73
2023-02-17T22:54:44.202Z,14.80
2023-02-17T22:57:47.873Z,12.63
2023-02-17T23:00:50.418Z,10.70
2023-02-17T23:03:54.723Z,9.77
2023-02-17T23:06:57.404Z,13.77
2023-02-17T23:09:59.772Z,8.63
2023-02-17T23:13:02.205Z,9.90
2023-02-17T23:16:05.410Z,10.23
2023-02-17T23:19:09.711Z,9.60
2023-02-17T23:25:18.628Z,14.80
2023-02-17T23:28:22.981Z,10.05
2023-02-17T23:31:25.532Z,11.90
2023-02-17T23:34:28.696Z,9.27
2023-02-17T23:37:31.125Z,14.38
2023-02-17T23:40:36.964Z,10.68
2023-02-17T23:43:39.375Z,10.52
2023-02-17T23:46:42.971Z,8.50
2023-02-17T23:49:45.307Z,7.80
2023-02-17T23:52:47.720Z,12.00
2023-02-17T23:55:50.080Z,7.80
2023-02-17T23:58:52.542Z,8.00
